This is the latest recevied weather packets stored in our database for station/object WK7G. If no packets are shown the sender has not sent any weather packets the latest 10 day(s).
| Time | Temp. | Humidity | Pressure | Rain* | Wind** | Luminosity | Snow |
|---|---|---|---|---|---|---|---|
| 1777483599 | 7.78° C | 48% | 1013.3 hPa | 0 mm | - | 248 W/m² | - |
| 1777482687 | 7.78° C | 46% | 1013.4 hPa | 0 mm | - | 173 W/m² | - |
| 1777482384 | 7.78° C | 47% | 1013.4 hPa | 0 mm | - | 190 W/m² | - |
| 1777479958 | 8.33° C | 50% | 1013.4 hPa | 0 mm | - | 773 W/m² | - |
| 1777476015 | 6.11° C | 58% | 1013.7 hPa | 0 mm | - | 336 W/m² | - |
| 1777471765 | 0° C | 78% | 1013.7 hPa | 0 mm | - | 122 W/m² | - |
| 1777469640 | -0.56° C | 78% | 1014 hPa | 0 mm | - | 68 W/m² | - |
| 1777469335 | -1.11° C | 79% | 1014 hPa | 0 mm | - | 59 W/m² | - |
| 1777469031 | -1.11° C | 79% | 1014.1 hPa | 0 mm | - | 52 W/m² | - |
| 1777468726 | -0.56° C | 77% | 1014.1 hPa | 0 mm | - | 47 W/m² | - |
| 1777468422 | -0.56° C | 75% | 1014.1 hPa | 0 mm | - | 39 W/m² | - |
| 1777468118 | -0.56° C | 76% | 1013.9 hPa | 0 mm | - | 32 W/m² | - |
| 1777467815 | -1.11° C | 79% | 1013.9 hPa | 0 mm | - | 28 W/m² | - |
| 1777467510 | -1.67° C | 80% | 1013.7 hPa | 0 mm | - | 27 W/m² | - |
| 1777467206 | -1.67° C | 80% | 1013.9 hPa | 0 mm | - | 26 W/m² | - |
| 1777466298 | -1.67° C | 80% | 1013.5 hPa | 0 mm | - | 12 W/m² | - |
| 1777465994 | -1.67° C | 79% | 1013.5 hPa | 0 mm | - | 9 W/m² | - |
| 1777465690 | -1.11° C | 78% | 1013.6 hPa | 0 mm | - | 6 W/m² | - |
| 1777465386 | -0.56° C | 76% | 1013.6 hPa | 0 mm | - | 2 W/m² | - |
| 1777465084 | 0° C | 74% | 1013.5 hPa | 0 mm | - | 1 W/m² | - |
| 1777464780 | -0.56° C | 75% | 1013 hPa | 0 mm | - | 0 W/m² | - |
| 1777464476 | -0.56° C | 77% | 1013.5 hPa | 0 mm | - | 0 W/m² | - |
| 1777464172 | -0.56° C | 77% | 1013.4 hPa | 0 mm | - | 0 W/m² | - |
| 1777463871 | -0.56° C | 78% | 1013.4 hPa | 0 mm | - | 0 W/m² | - |
| 1777463568 | -1.11° C | 78% | 1013.1 hPa | 0 mm | - | 0 W/m² | - |
* Rain latest hour (hover to see other rain measurements)
** Current wind speed in m/s (hover to see current wind gust speed)